createdAt,value
2019-01-30T00:00:41.611Z,-0.38
2019-01-30T00:02:15.809Z,-0.36
2019-01-30T00:03:49.757Z,-0.39
2019-01-30T00:05:23.799Z,-0.40
2019-01-30T00:06:58.028Z,-0.38
2019-01-30T00:08:32.218Z,-0.37
2019-01-30T00:10:06.143Z,-0.37
2019-01-30T00:11:40.021Z,-0.38
2019-01-30T00:13:12.978Z,-0.40
2019-01-30T00:14:46.727Z,-0.41
2019-01-30T00:16:20.417Z,-0.41
2019-01-30T00:17:53.306Z,-0.37
2019-01-30T00:19:27.234Z,-0.36
2019-01-30T00:21:01.245Z,-0.39
2019-01-30T00:22:35.002Z,-0.38
2019-01-30T00:24:08.854Z,-0.37
2019-01-30T00:25:43.116Z,-0.38
2019-01-30T00:27:16.823Z,-0.39
2019-01-30T00:28:50.924Z,-0.38
2019-01-30T00:30:25.970Z,-0.37
2019-01-30T00:32:00.977Z,-0.32
2019-01-30T00:33:35.854Z,-0.30
2019-01-30T00:35:09.730Z,-0.29
2019-01-30T00:36:42.402Z,-0.32
2019-01-30T00:38:16.389Z,-0.27
2019-01-30T00:39:50.456Z,-0.29
2019-01-30T00:41:23.443Z,-0.30
2019-01-30T00:42:57.457Z,-0.34
2019-01-30T00:44:31.451Z,-0.33
2019-01-30T00:46:05.211Z,-0.32
2019-01-30T00:47:38.272Z,-0.31
2019-01-30T00:49:12.776Z,-0.30
2019-01-30T00:50:46.954Z,-0.31
2019-01-30T00:52:20.857Z,-0.29
2019-01-30T00:54:10.133Z,-0.30
2019-01-30T00:55:44.953Z,-0.27
2019-01-30T00:57:18.945Z,-0.24
2019-01-30T00:58:51.732Z,-0.26
2019-01-30T01:00:28.739Z,-0.27
2019-01-30T01:02:02.979Z,-0.33
2019-01-30T01:03:37.035Z,-0.30
2019-01-30T01:05:11.071Z,-0.34
2019-01-30T01:06:45.030Z,-0.33
2019-01-30T01:08:18.814Z,-0.31
2019-01-30T01:09:52.726Z,-0.27
2019-01-30T01:11:26.559Z,-0.29
2019-01-30T01:13:01.351Z,-0.23
2019-01-30T01:14:35.471Z,-0.22
2019-01-30T01:16:09.149Z,-0.35
2019-01-30T01:17:43.034Z,-0.26
2019-01-30T01:19:16.942Z,-0.25
2019-01-30T01:20:49.968Z,-0.21
2019-01-30T01:22:23.618Z,-0.27
2019-01-30T01:23:57.465Z,-0.29
2019-01-30T01:25:32.573Z,-0.29
2019-01-30T01:27:06.425Z,-0.27
2019-01-30T01:28:39.395Z,-0.30
2019-01-30T01:30:13.779Z,-0.30
2019-01-30T01:31:46.871Z,-0.28
2019-01-30T01:33:19.724Z,-0.26
2019-01-30T01:35:56.362Z,-0.27
2019-01-30T01:37:30.239Z,-0.24
2019-01-30T01:39:04.127Z,-0.23
2019-01-30T01:40:39.054Z,-0.20
2019-01-30T01:42:13.303Z,-0.19
2019-01-30T01:43:47.576Z,-0.15
2019-01-30T01:45:22.587Z,-0.14
2019-01-30T01:46:56.746Z,-0.17
2019-01-30T01:48:30.775Z,-0.17
2019-01-30T01:50:03.485Z,-0.15
2019-01-30T01:51:36.266Z,-0.11
2019-01-30T01:53:11.045Z,-0.11
2019-01-30T01:54:44.829Z,-0.11
2019-01-30T01:56:19.005Z,-0.11
2019-01-30T01:57:52.902Z,-0.08
2019-01-30T01:59:27.007Z,-0.12
2019-01-30T02:01:01.077Z,-0.08
2019-01-30T02:02:35.059Z,-0.14
2019-01-30T02:04:09.132Z,-0.10
2019-01-30T02:05:44.218Z,-0.11
2019-01-30T02:07:18.054Z,-0.09
2019-01-30T02:08:50.730Z,-0.08
2019-01-30T02:10:25.860Z,-0.08
2019-01-30T02:11:59.725Z,-0.08
2019-01-30T02:13:33.865Z,-0.05
2019-01-30T02:15:07.932Z,-0.03
2019-01-30T02:16:42.080Z,-0.03
2019-01-30T02:18:15.957Z,-0.02
2019-01-30T02:19:49.980Z,-0.01
2019-01-30T02:21:23.748Z,0.00
2019-01-30T02:22:56.734Z,0.01
2019-01-30T02:24:30.747Z,0.01
2019-01-30T02:26:04.746Z,0.00
2019-01-30T02:27:38.641Z,-0.02
2019-01-30T02:29:12.555Z,0.01
2019-01-30T02:30:47.875Z,0.01
2019-01-30T02:32:21.183Z,0.04
2019-01-30T02:33:55.198Z,0.04
2019-01-30T02:35:29.293Z,0.05
2019-01-30T02:37:05.050Z,0.07
2019-01-30T02:38:38.972Z,0.08
2019-01-30T02:40:11.694Z,0.09
2019-01-30T02:41:45.559Z,0.10
2019-01-30T02:43:19.341Z,0.10
2019-01-30T02:44:53.305Z,0.13
2019-01-30T02:46:27.558Z,0.12
2019-01-30T02:48:01.416Z,0.13
2019-01-30T02:49:34.252Z,0.09
2019-01-30T02:51:07.401Z,0.09
2019-01-30T02:52:41.327Z,0.09
2019-01-30T02:54:15.406Z,0.11
2019-01-30T02:55:49.331Z,0.11
2019-01-30T02:57:23.524Z,0.11
2019-01-30T02:58:57.501Z,0.09
2019-01-30T03:00:33.617Z,0.07
2019-01-30T03:02:39.100Z,0.07
2019-01-30T03:04:12.182Z,0.08
2019-01-30T03:05:47.210Z,0.08
2019-01-30T03:07:21.323Z,0.07
2019-01-30T03:08:54.382Z,0.07
2019-01-30T03:10:30.472Z,0.06
2019-01-30T03:12:03.777Z,0.08
2019-01-30T03:13:38.162Z,0.06
2019-01-30T03:15:11.239Z,0.06
2019-01-30T03:16:45.084Z,0.06
2019-01-30T03:18:19.085Z,0.07
2019-01-30T03:19:52.746Z,0.08
2019-01-30T03:21:25.622Z,0.08
2019-01-30T03:22:59.785Z,0.09
2019-01-30T03:24:33.672Z,0.08
2019-01-30T03:26:07.412Z,0.09
2019-01-30T03:27:40.640Z,0.09
2019-01-30T03:29:13.576Z,0.09
2019-01-30T03:30:48.640Z,0.09
2019-01-30T03:32:22.639Z,0.09
2019-01-30T03:33:56.469Z,0.09
2019-01-30T03:35:30.456Z,0.10
2019-01-30T03:37:04.215Z,0.11
2019-01-30T03:38:38.077Z,0.09
2019-01-30T03:40:13.000Z,0.10
2019-01-30T03:41:45.786Z,0.10
2019-01-30T03:43:19.644Z,0.10
2019-01-30T03:44:53.452Z,0.10
2019-01-30T03:46:27.557Z,0.10
2019-01-30T03:48:01.383Z,0.10
2019-01-30T03:49:35.155Z,0.10
2019-01-30T03:51:09.953Z,0.10
2019-01-30T03:52:43.854Z,0.10
2019-01-30T03:54:17.609Z,0.09
2019-01-30T03:55:51.370Z,0.09
2019-01-30T03:57:25.473Z,0.11
2019-01-30T03:58:59.516Z,0.10
2019-01-30T04:00:36.578Z,0.10
2019-01-30T04:02:10.502Z,0.09
2019-01-30T04:03:44.602Z,0.09
2019-01-30T04:05:17.485Z,0.09
2019-01-30T04:06:51.550Z,0.10
2019-01-30T04:08:25.669Z,0.09
2019-01-30T04:09:59.574Z,0.09
2019-01-30T04:11:33.564Z,0.08
2019-01-30T04:13:07.777Z,0.09
2019-01-30T04:14:41.893Z,0.09
2019-01-30T04:16:16.103Z,0.09
2019-01-30T04:17:50.135Z,0.09
2019-01-30T04:19:22.938Z,0.09
2019-01-30T04:20:56.975Z,0.10
2019-01-30T04:22:30.970Z,0.09
2019-01-30T04:24:05.122Z,0.08
2019-01-30T04:25:39.212Z,0.08
2019-01-30T04:27:13.004Z,0.08
2019-01-30T04:28:46.906Z,0.08
2019-01-30T04:30:21.965Z,0.07
2019-01-30T04:31:55.544Z,0.06
2019-01-30T04:33:29.575Z,0.07
2019-01-30T04:35:03.651Z,0.06
2019-01-30T04:36:36.926Z,0.07
2019-01-30T04:38:10.676Z,0.06
2019-01-30T04:39:44.626Z,0.06
2019-01-30T04:41:18.456Z,0.06
2019-01-30T04:42:52.291Z,0.05
2019-01-30T04:44:25.206Z,0.05
2019-01-30T04:45:59.022Z,0.05
2019-01-30T04:47:31.840Z,0.04
2019-01-30T04:49:06.112Z,0.05
2019-01-30T04:50:39.902Z,0.05
2019-01-30T04:52:13.602Z,0.03
2019-01-30T04:53:47.489Z,0.03
2019-01-30T04:55:21.530Z,0.04
2019-01-30T04:56:55.409Z,0.02
2019-01-30T04:58:28.438Z,0.02
2019-01-30T05:00:01.654Z,0.02
2019-01-30T05:01:35.888Z,0.02
2019-01-30T05:03:08.625Z,0.02
2019-01-30T05:04:41.497Z,0.02
2019-01-30T05:06:15.597Z,0.01
2019-01-30T05:07:49.428Z,0.01
2019-01-30T05:09:24.354Z,0.01
2019-01-30T05:10:57.277Z,0.00
2019-01-30T05:12:31.052Z,0.00
2019-01-30T05:14:04.875Z,0.01
2019-01-30T05:15:39.701Z,0.00
2019-01-30T05:17:13.808Z,-0.01
2019-01-30T05:18:47.811Z,-0.01
2019-01-30T05:20:22.636Z,-0.02
2019-01-30T05:21:56.621Z,-0.02
2019-01-30T05:23:30.340Z,-0.03
2019-01-30T05:25:04.420Z,-0.03
2019-01-30T05:26:38.742Z,-0.05
2019-01-30T05:28:12.661Z,-0.04
2019-01-30T05:29:46.685Z,-0.04
2019-01-30T05:31:22.030Z,-0.05
2019-01-30T05:32:54.954Z,-0.05
2019-01-30T05:34:28.816Z,-0.06
2019-01-30T05:36:03.817Z,-0.06
2019-01-30T05:37:36.754Z,-0.06
2019-01-30T05:39:10.586Z,-0.07
2019-01-30T05:40:44.387Z,-0.07
2019-01-30T05:42:18.409Z,-0.08
2019-01-30T05:43:52.288Z,-0.08
2019-01-30T05:45:27.507Z,-0.08
2019-01-30T05:47:02.329Z,-0.08
2019-01-30T05:48:36.083Z,-0.09
2019-01-30T05:50:09.793Z,-0.09
2019-01-30T05:51:44.061Z,-0.09
2019-01-30T05:53:17.922Z,-0.09
2019-01-30T05:54:51.871Z,-0.10
2019-01-30T05:56:25.629Z,-0.11
2019-01-30T05:57:59.567Z,-0.13
2019-01-30T05:59:33.548Z,-0.12
2019-01-30T06:01:07.455Z,-0.14
2019-01-30T06:02:41.355Z,-0.12
2019-01-30T06:04:15.378Z,-0.13
2019-01-30T06:05:49.446Z,-0.13
2019-01-30T06:07:22.547Z,-0.15
2019-01-30T06:08:55.647Z,-0.15
2019-01-30T06:10:29.603Z,-0.15
2019-01-30T06:12:03.681Z,-0.16
2019-01-30T06:13:37.744Z,-0.16
2019-01-30T06:15:11.446Z,-0.17
2019-01-30T06:16:45.441Z,-0.17
2019-01-30T06:18:19.457Z,-0.18
2019-01-30T06:19:53.351Z,-0.18
2019-01-30T06:21:27.279Z,-0.19
2019-01-30T06:23:01.940Z,-0.20
2019-01-30T06:24:35.499Z,-0.20
2019-01-30T06:26:09.379Z,-0.19
2019-01-30T06:27:43.573Z,-0.21
2019-01-30T06:29:17.570Z,-0.23
2019-01-30T06:30:51.486Z,-0.26
2019-01-30T06:32:25.726Z,-0.39
2019-01-30T06:33:59.728Z,-0.33
2019-01-30T06:35:34.388Z,-0.34
2019-01-30T06:37:08.488Z,-0.38
2019-01-30T06:38:42.827Z,-0.37
2019-01-30T06:40:16.796Z,-0.38
2019-01-30T06:41:50.982Z,-0.37
2019-01-30T06:43:24.942Z,-0.40
2019-01-30T06:44:59.212Z,-0.38
2019-01-30T06:46:31.942Z,-0.36
2019-01-30T06:48:04.933Z,-0.37
2019-01-30T06:49:39.161Z,-0.36
2019-01-30T06:51:14.891Z,-0.39
2019-01-30T06:52:48.824Z,-0.38
2019-01-30T06:54:22.631Z,-0.45
2019-01-30T06:55:55.647Z,-0.46
2019-01-30T06:57:29.575Z,-0.46
2019-01-30T06:59:03.568Z,-0.47
2019-01-30T07:00:40.572Z,-0.48
2019-01-30T07:02:14.682Z,-0.47
2019-01-30T07:03:48.788Z,-0.47
2019-01-30T07:05:21.697Z,-0.48
2019-01-30T07:06:54.521Z,-0.50
2019-01-30T07:08:29.443Z,-0.48
2019-01-30T07:10:03.438Z,-0.51
2019-01-30T07:11:37.356Z,-0.51
2019-01-30T07:13:11.126Z,-0.50
2019-01-30T07:14:45.160Z,-0.51
2019-01-30T07:16:19.467Z,-0.51
2019-01-30T07:17:53.511Z,-0.53
2019-01-30T07:19:27.360Z,-0.52
2019-01-30T07:21:01.199Z,-0.60
2019-01-30T07:22:34.899Z,-0.65
2019-01-30T07:24:08.922Z,-0.65
2019-01-30T07:25:43.700Z,-0.65
2019-01-30T07:27:17.522Z,-0.64
2019-01-30T07:28:51.435Z,-0.63
2019-01-30T07:30:29.528Z,-0.65
2019-01-30T07:32:04.532Z,-0.69
2019-01-30T07:33:37.615Z,-0.74
2019-01-30T07:35:11.541Z,-0.70
2019-01-30T07:36:45.445Z,-0.71
2019-01-30T07:38:19.401Z,-0.75
2019-01-30T07:39:53.349Z,-0.73
2019-01-30T07:41:27.048Z,-0.75
2019-01-30T07:43:01.152Z,-0.74
2019-01-30T07:44:34.962Z,-0.77
2019-01-30T07:46:08.722Z,-0.75
2019-01-30T07:47:42.712Z,-0.77
2019-01-30T07:49:16.708Z,-0.77
2019-01-30T07:50:50.623Z,-0.77
2019-01-30T07:52:39.526Z,-0.76
2019-01-30T07:54:12.255Z,-0.76
2019-01-30T07:55:44.895Z,-0.76
2019-01-30T07:57:18.748Z,-0.76
2019-01-30T07:58:53.074Z,-0.77
2019-01-30T08:00:27.956Z,-0.86
2019-01-30T08:02:01.945Z,-0.85
2019-01-30T08:03:36.075Z,-0.87
2019-01-30T08:05:10.119Z,-0.87
2019-01-30T08:06:45.149Z,-0.85
2019-01-30T08:08:19.823Z,-0.94
2019-01-30T08:09:53.953Z,-0.93
2019-01-30T08:11:27.624Z,-0.88
2019-01-30T08:13:01.536Z,-0.89
2019-01-30T08:14:34.485Z,-0.89
2019-01-30T08:16:08.661Z,-0.90
2019-01-30T08:17:42.543Z,-0.88
2019-01-30T08:19:16.438Z,-0.87
2019-01-30T08:20:50.242Z,-0.86
2019-01-30T08:22:24.034Z,-0.86
2019-01-30T08:23:57.100Z,-0.85
2019-01-30T08:25:32.275Z,-0.85
2019-01-30T08:27:05.789Z,-0.83
2019-01-30T08:28:38.119Z,-0.83
2019-01-30T08:30:22.042Z,-0.81
2019-01-30T08:31:46.568Z,-0.94
2019-01-30T08:33:21.700Z,-0.89
2019-01-30T08:34:55.573Z,-0.89
2019-01-30T08:36:28.354Z,-0.91
2019-01-30T08:38:03.646Z,-0.89
2019-01-30T08:39:36.377Z,-0.86
2019-01-30T08:41:09.181Z,-0.90
2019-01-30T08:42:43.033Z,-0.89
2019-01-30T08:44:16.835Z,-0.89
2019-01-30T08:45:50.534Z,-0.90
2019-01-30T08:47:24.395Z,-0.90
2019-01-30T08:48:57.206Z,-0.89
2019-01-30T08:50:32.145Z,-0.96
2019-01-30T08:52:06.958Z,-0.95
2019-01-30T08:53:40.472Z,-1.03
2019-01-30T08:55:13.489Z,-0.97
2019-01-30T08:56:53.060Z,-0.97
2019-01-30T08:58:22.285Z,-0.96
2019-01-30T08:59:55.244Z,-0.94
2019-01-30T09:01:29.062Z,-0.95
2019-01-30T09:03:03.248Z,-0.93
2019-01-30T09:04:38.196Z,-0.92
2019-01-30T09:06:11.117Z,-0.93
2019-01-30T09:07:45.593Z,-0.93
2019-01-30T09:09:20.416Z,-0.93
2019-01-30T09:10:53.230Z,-0.90
2019-01-30T09:12:27.226Z,-0.90
2019-01-30T09:14:01.068Z,-0.88
2019-01-30T09:15:36.880Z,-0.96
2019-01-30T09:17:09.784Z,-0.98
2019-01-30T09:18:43.687Z,-0.94
2019-01-30T09:20:17.729Z,-0.97
2019-01-30T09:21:51.435Z,-0.93
2019-01-30T09:23:25.119Z,-0.90
2019-01-30T09:24:58.954Z,-0.92
2019-01-30T09:26:33.030Z,-0.92
2019-01-30T09:28:05.908Z,-0.94
2019-01-30T09:29:39.875Z,-0.97
2019-01-30T09:31:13.716Z,-0.95
2019-01-30T09:32:47.527Z,-0.95
2019-01-30T09:34:21.648Z,-0.98
2019-01-30T09:35:55.686Z,-0.96
2019-01-30T09:37:29.990Z,-1.01
2019-01-30T09:39:03.869Z,-1.09
2019-01-30T09:40:37.946Z,-1.09
2019-01-30T09:42:12.131Z,-1.13
2019-01-30T09:43:46.201Z,-1.07
2019-01-30T09:45:21.217Z,-1.05
2019-01-30T09:46:55.468Z,-1.03
2019-01-30T09:48:30.595Z,-1.03
2019-01-30T09:50:04.910Z,-1.01
2019-01-30T09:51:38.626Z,-1.01
2019-01-30T09:53:12.684Z,-1.02
2019-01-30T09:54:46.614Z,-1.00
2019-01-30T09:56:20.758Z,-0.99
2019-01-30T09:57:54.866Z,-1.05
2019-01-30T09:59:29.591Z,-1.07
2019-01-30T10:01:03.388Z,-1.09
2019-01-30T10:02:37.187Z,-1.17
2019-01-30T10:04:11.151Z,-1.15
2019-01-30T10:05:45.091Z,-1.13
2019-01-30T10:07:19.073Z,-1.15
2019-01-30T10:08:53.080Z,-1.16
2019-01-30T10:10:28.668Z,-1.18
2019-01-30T10:12:03.538Z,-1.21
2019-01-30T10:13:37.579Z,-1.18
2019-01-30T10:15:12.191Z,-1.14
2019-01-30T10:16:45.967Z,-1.11
2019-01-30T10:18:19.765Z,-1.12
2019-01-30T10:19:53.692Z,-1.14
2019-01-30T10:21:27.602Z,-1.12
2019-01-30T10:23:01.621Z,-1.18
2019-01-30T10:24:35.468Z,-1.28
2019-01-30T10:26:09.411Z,-1.26
2019-01-30T10:27:43.198Z,-1.30
2019-01-30T10:29:17.223Z,-1.35
2019-01-30T10:30:53.987Z,-1.39
2019-01-30T10:32:28.095Z,-1.42
2019-01-30T10:34:02.887Z,-1.38
2019-01-30T10:35:36.914Z,-1.35
2019-01-30T10:37:10.795Z,-1.40
2019-01-30T10:38:44.656Z,-1.36
2019-01-30T10:40:18.308Z,-1.37
2019-01-30T10:41:52.215Z,-1.34
2019-01-30T10:43:26.219Z,-1.32
2019-01-30T10:45:01.003Z,-1.30
2019-01-30T10:46:34.895Z,-1.31
2019-01-30T10:48:08.846Z,-1.29
2019-01-30T10:49:43.263Z,-1.28
2019-01-30T10:51:17.777Z,-1.32
2019-01-30T10:52:51.991Z,-1.31
2019-01-30T10:54:25.836Z,-1.30
2019-01-30T10:55:59.964Z,-1.29
2019-01-30T10:57:34.700Z,-1.26
2019-01-30T10:59:08.623Z,-1.29
2019-01-30T11:00:45.492Z,-1.29
2019-01-30T11:02:19.315Z,-1.25
2019-01-30T11:03:57.335Z,-1.29
2019-01-30T11:05:27.569Z,-1.26
2019-01-30T11:07:01.312Z,-1.29
2019-01-30T11:08:35.065Z,-1.40
2019-01-30T11:10:09.022Z,-1.35
2019-01-30T11:11:43.434Z,-1.33
2019-01-30T11:13:17.262Z,-1.30
2019-01-30T11:14:51.396Z,-1.27
2019-01-30T11:16:25.539Z,-1.24
2019-01-30T11:17:59.619Z,-1.28
2019-01-30T11:19:33.554Z,-1.26
2019-01-30T11:21:07.629Z,-1.26
2019-01-30T11:22:41.459Z,-1.21
2019-01-30T11:24:15.324Z,-1.18
2019-01-30T11:25:51.074Z,-1.16
2019-01-30T11:27:25.778Z,-1.18
2019-01-30T11:28:59.830Z,-1.17
2019-01-30T11:30:35.057Z,-1.17
2019-01-30T11:32:09.849Z,-1.15
2019-01-30T11:33:43.600Z,-1.16
2019-01-30T11:35:17.689Z,-1.12
2019-01-30T11:36:52.576Z,-1.11
2019-01-30T11:38:26.725Z,-1.10
2019-01-30T11:40:00.709Z,-1.12
2019-01-30T11:41:34.432Z,-1.15
2019-01-30T11:43:07.482Z,-1.11
2019-01-30T11:44:41.312Z,-1.10
2019-01-30T11:46:15.955Z,-1.07
2019-01-30T11:47:48.768Z,-1.14
2019-01-30T11:49:22.791Z,-1.20
2019-01-30T11:50:57.823Z,-1.21
2019-01-30T11:52:31.820Z,-1.21
2019-01-30T11:54:06.558Z,-1.20
2019-01-30T11:55:40.449Z,-1.17
2019-01-30T11:57:14.302Z,-1.14
2019-01-30T11:58:48.044Z,-1.14
2019-01-30T12:00:24.060Z,-1.15
2019-01-30T12:01:58.199Z,-1.17
2019-01-30T12:03:32.231Z,-1.17
2019-01-30T12:05:06.219Z,-1.15
2019-01-30T12:06:39.279Z,-1.16
2019-01-30T12:08:13.279Z,-1.14
2019-01-30T12:09:47.442Z,-1.18
2019-01-30T12:11:21.436Z,-1.18
2019-01-30T12:12:55.207Z,-1.14
2019-01-30T12:14:28.417Z,-1.23
2019-01-30T12:16:02.203Z,-1.17
2019-01-30T12:17:35.995Z,-1.19
2019-01-30T12:19:10.000Z,-1.15
2019-01-30T12:20:43.746Z,-1.21
2019-01-30T12:22:17.828Z,-1.17
2019-01-30T12:23:51.702Z,-1.15
2019-01-30T12:25:26.558Z,-1.18
2019-01-30T12:26:59.535Z,-1.17
2019-01-30T12:28:34.269Z,-1.18
2019-01-30T12:30:08.033Z,-1.22
2019-01-30T12:31:42.115Z,-1.21
2019-01-30T12:33:16.081Z,-1.22
2019-01-30T12:34:50.140Z,-1.20
2019-01-30T12:36:23.922Z,-1.21
2019-01-30T12:37:57.668Z,-1.18
2019-01-30T12:39:32.672Z,-1.16
2019-01-30T12:41:06.538Z,-1.15
2019-01-30T12:42:40.279Z,-1.16
2019-01-30T12:44:14.171Z,-1.16
2019-01-30T12:45:51.099Z,-1.14
2019-01-30T12:47:24.938Z,-1.13
2019-01-30T12:48:59.031Z,-1.12
2019-01-30T12:50:32.914Z,-1.11
2019-01-30T12:52:06.659Z,-1.10
2019-01-30T12:53:40.687Z,-1.10
2019-01-30T12:55:14.579Z,-1.09
2019-01-30T12:56:48.558Z,-1.11
2019-01-30T12:58:22.370Z,-1.09
2019-01-30T12:59:57.071Z,-1.09
2019-01-30T13:01:31.093Z,-1.08
2019-01-30T13:03:05.012Z,-1.09
2019-01-30T13:04:40.022Z,-1.08
2019-01-30T13:06:13.026Z,-1.08
2019-01-30T13:07:46.926Z,-1.07
2019-01-30T13:09:22.630Z,-1.06
2019-01-30T13:10:56.720Z,-1.06
2019-01-30T13:12:30.745Z,-1.06
2019-01-30T13:14:04.668Z,-1.08
2019-01-30T13:15:40.948Z,-1.06
2019-01-30T13:17:15.465Z,-1.06
2019-01-30T13:18:49.117Z,-1.05
2019-01-30T13:20:25.109Z,-1.05
2019-01-30T13:21:58.739Z,-1.04
2019-01-30T13:23:32.787Z,-1.05
2019-01-30T13:25:06.686Z,-1.09
2019-01-30T13:26:40.593Z,-1.07
2019-01-30T13:28:14.530Z,-1.06
2019-01-30T13:29:47.249Z,-1.06
2019-01-30T13:31:22.280Z,-1.06
2019-01-30T13:32:56.127Z,-1.05
2019-01-30T13:34:29.721Z,-1.04
2019-01-30T13:36:03.724Z,-1.04
2019-01-30T13:37:37.428Z,-1.05
2019-01-30T13:39:11.226Z,-1.07
2019-01-30T13:41:02.160Z,-1.06
2019-01-30T13:42:36.026Z,-1.08
2019-01-30T13:44:09.919Z,-1.08
2019-01-30T13:45:44.731Z,-1.07
2019-01-30T13:47:18.637Z,-1.08
2019-01-30T13:48:52.669Z,-1.07
2019-01-30T13:50:29.749Z,-1.07
2019-01-30T13:52:03.554Z,-1.07
2019-01-30T13:53:37.544Z,-1.09
2019-01-30T13:55:12.332Z,-1.08
2019-01-30T13:56:46.442Z,-1.08
2019-01-30T13:58:21.190Z,-1.08
2019-01-30T13:59:55.133Z,-1.08
2019-01-30T14:01:29.916Z,-1.06
2019-01-30T14:03:03.820Z,-1.06
2019-01-30T14:04:37.727Z,-1.05
2019-01-30T14:06:11.551Z,-1.04
2019-01-30T14:07:45.563Z,-1.04
2019-01-30T14:09:22.173Z,-1.03
2019-01-30T14:10:56.051Z,-1.03
2019-01-30T14:12:29.998Z,-1.03
2019-01-30T14:14:03.750Z,-1.04
2019-01-30T14:15:39.758Z,-1.03
2019-01-30T14:17:13.520Z,-1.03
2019-01-30T14:18:47.836Z,-1.02
2019-01-30T14:20:22.900Z,-1.06
2019-01-30T14:21:56.578Z,-1.05
2019-01-30T14:23:31.547Z,-1.07
2019-01-30T14:25:05.849Z,-1.10
2019-01-30T14:26:39.966Z,-1.15
2019-01-30T14:28:13.684Z,-1.13
2019-01-30T14:29:57.913Z,-1.18
2019-01-30T14:31:22.120Z,-1.27
2019-01-30T14:32:56.164Z,-1.26
2019-01-30T14:34:29.912Z,-1.25
2019-01-30T14:36:04.836Z,-1.28
2019-01-30T14:37:38.733Z,-1.25
2019-01-30T14:39:13.642Z,-1.25
2019-01-30T14:40:47.408Z,-1.24
2019-01-30T14:42:21.480Z,-1.22
2019-01-30T14:43:55.323Z,-1.25
2019-01-30T14:45:31.198Z,-1.24
2019-01-30T14:47:05.176Z,-1.24
2019-01-30T14:48:39.373Z,-1.24
2019-01-30T14:50:13.491Z,-1.22
2019-01-30T14:51:47.386Z,-1.22
2019-01-30T14:53:52.702Z,-1.22
2019-01-30T14:55:25.826Z,-1.21
2019-01-30T14:56:59.698Z,-1.20
2019-01-30T14:58:34.600Z,-1.21
2019-01-30T15:00:09.075Z,-1.20
2019-01-30T15:01:43.079Z,-1.20
2019-01-30T15:03:16.823Z,-1.21
2019-01-30T15:04:50.832Z,-1.21
2019-01-30T15:06:24.657Z,-1.20
2019-01-30T15:07:58.661Z,-1.19
2019-01-30T15:09:33.563Z,-1.20
2019-01-30T15:11:07.488Z,-1.21
2019-01-30T15:12:41.507Z,-1.21
2019-01-30T15:14:15.499Z,-1.20
2019-01-30T15:15:52.301Z,-1.19
2019-01-30T15:17:26.370Z,-1.20
2019-01-30T15:19:01.844Z,-1.20
2019-01-30T15:20:40.690Z,-1.20
2019-01-30T15:22:14.743Z,-1.20
2019-01-30T15:23:49.671Z,-1.21
2019-01-30T15:25:24.667Z,-1.21
2019-01-30T15:26:58.700Z,-1.23
2019-01-30T15:28:33.723Z,-1.22
2019-01-30T15:30:07.817Z,-1.23
2019-01-30T15:31:41.640Z,-1.22
2019-01-30T15:33:15.562Z,-1.23
2019-01-30T15:34:51.975Z,-1.22
2019-01-30T15:36:26.022Z,-1.24
2019-01-30T15:37:59.883Z,-1.25
2019-01-30T15:39:34.170Z,-1.25
2019-01-30T15:41:07.966Z,-1.26
2019-01-30T15:42:49.143Z,-1.25
2019-01-30T15:44:17.706Z,-1.27
2019-01-30T15:45:51.667Z,-1.26
2019-01-30T15:47:25.773Z,-1.28
2019-01-30T15:48:59.809Z,-1.27
2019-01-30T15:50:36.831Z,-1.28
2019-01-30T15:52:10.595Z,-1.31
2019-01-30T15:53:45.406Z,-1.33
2019-01-30T15:55:20.735Z,-1.35
2019-01-30T15:56:55.331Z,-1.34
2019-01-30T15:58:31.690Z,-1.38
2019-01-30T16:00:06.734Z,-1.35
2019-01-30T16:01:46.681Z,-1.38
2019-01-30T16:03:21.489Z,-1.39
2019-01-30T16:04:55.413Z,-1.38
2019-01-30T16:06:30.522Z,-1.37
2019-01-30T16:08:04.294Z,-1.38
2019-01-30T16:09:37.911Z,-1.37
2019-01-30T16:11:12.808Z,-1.40
2019-01-30T16:12:46.766Z,-1.45
2019-01-30T16:14:20.554Z,-1.43
2019-01-30T16:15:59.684Z,-1.42
2019-01-30T16:17:34.338Z,-1.42
2019-01-30T16:19:08.291Z,-1.43
2019-01-30T16:20:42.238Z,-1.43
2019-01-30T16:22:17.187Z,-1.44
2019-01-30T16:23:52.223Z,-1.43
2019-01-30T16:25:26.050Z,-1.44
2019-01-30T16:27:00.567Z,-1.45
2019-01-30T16:28:34.475Z,-1.43
2019-01-30T16:30:08.329Z,-1.43
2019-01-30T16:31:42.250Z,-1.43
2019-01-30T16:33:16.366Z,-1.43
2019-01-30T16:34:50.294Z,-1.43
2019-01-30T16:36:25.294Z,-1.43
2019-01-30T16:37:59.198Z,-1.43
2019-01-30T16:39:34.143Z,-1.43
2019-01-30T16:41:07.883Z,-1.43
2019-01-30T16:42:42.051Z,-1.43
2019-01-30T16:44:16.006Z,-1.44
2019-01-30T16:45:52.206Z,-1.44
2019-01-30T16:47:26.200Z,-1.51
2019-01-30T16:49:00.296Z,-1.48
2019-01-30T16:50:35.350Z,-1.48
2019-01-30T16:52:09.574Z,-1.46
2019-01-30T16:53:43.722Z,-1.46
2019-01-30T16:55:17.503Z,-1.47
2019-01-30T16:56:51.647Z,-1.47
2019-01-30T16:58:26.451Z,-1.47
2019-01-30T17:00:01.199Z,-1.48
2019-01-30T17:01:35.665Z,-1.48
2019-01-30T17:03:09.658Z,-1.48
2019-01-30T17:04:43.622Z,-1.50
2019-01-30T17:06:17.851Z,-1.51
2019-01-30T17:07:52.654Z,-1.51
2019-01-30T17:09:26.807Z,-1.50
2019-01-30T17:11:01.194Z,-1.52
2019-01-30T17:12:34.823Z,-1.51
2019-01-30T17:14:08.897Z,-1.51
2019-01-30T17:15:44.817Z,-1.51
2019-01-30T17:17:18.793Z,-1.52
2019-01-30T17:18:53.571Z,-1.52
2019-01-30T17:20:32.296Z,-1.53
2019-01-30T17:22:06.241Z,-1.54
2019-01-30T17:23:40.086Z,-1.53
2019-01-30T17:25:14.106Z,-1.54
2019-01-30T17:26:48.710Z,-1.54
2019-01-30T17:28:22.713Z,-1.55
2019-01-30T17:29:56.931Z,-1.54
2019-01-30T17:31:40.871Z,-1.54
2019-01-30T17:33:14.708Z,-1.54
2019-01-30T17:34:51.725Z,-1.55
2019-01-30T17:36:23.368Z,-1.55
2019-01-30T17:37:57.216Z,-1.54
2019-01-30T17:39:31.835Z,-1.55
2019-01-30T17:41:05.727Z,-1.56
2019-01-30T17:42:39.801Z,-1.57
2019-01-30T17:44:13.619Z,-1.56
2019-01-30T17:45:47.385Z,-1.57
2019-01-30T17:47:22.458Z,-1.58
2019-01-30T17:48:56.220Z,-1.57
2019-01-30T17:50:32.036Z,-1.57
2019-01-30T17:52:05.898Z,-1.59
2019-01-30T17:53:39.802Z,-1.59
2019-01-30T17:55:14.110Z,-1.59
2019-01-30T17:56:48.320Z,-1.59
2019-01-30T17:58:22.221Z,-1.60
2019-01-30T17:59:56.230Z,-1.60
2019-01-30T18:01:31.251Z,-1.59
2019-01-30T18:03:05.157Z,-1.60
2019-01-30T18:04:39.181Z,-1.61
2019-01-30T18:06:14.150Z,-1.62
2019-01-30T18:07:48.278Z,-1.62
2019-01-30T18:09:24.348Z,-1.63
2019-01-30T18:10:58.352Z,-1.63
2019-01-30T18:12:32.138Z,-1.63
2019-01-30T18:14:06.153Z,-1.64
2019-01-30T18:15:41.275Z,-1.65
2019-01-30T18:17:14.295Z,-1.65
2019-01-30T18:18:49.067Z,-1.66
2019-01-30T18:20:24.275Z,-1.66
2019-01-30T18:21:59.150Z,-1.67
2019-01-30T18:23:32.949Z,-1.69
2019-01-30T18:25:06.756Z,-1.69
2019-01-30T18:26:40.828Z,-1.68
2019-01-30T18:28:14.825Z,-1.73
2019-01-30T18:29:48.848Z,-1.72
2019-01-30T18:31:22.885Z,-1.73
2019-01-30T18:32:57.782Z,-1.75
2019-01-30T18:34:31.683Z,-1.74
2019-01-30T18:36:05.907Z,-1.74
2019-01-30T18:37:40.909Z,-1.75
2019-01-30T18:39:15.933Z,-1.77
2019-01-30T18:40:49.560Z,-1.76
2019-01-30T18:42:23.296Z,-1.77
2019-01-30T18:43:56.341Z,-1.78
2019-01-30T18:45:33.436Z,-1.79
2019-01-30T18:47:08.240Z,-1.78
2019-01-30T18:48:41.925Z,-1.79
2019-01-30T18:50:16.115Z,-1.80
2019-01-30T18:51:50.865Z,-1.80
2019-01-30T18:53:24.857Z,-1.80
2019-01-30T18:54:58.959Z,-1.80
2019-01-30T18:56:36.491Z,-1.80
2019-01-30T18:58:08.108Z,-1.80
2019-01-30T18:59:42.024Z,-1.82
2019-01-30T19:01:15.702Z,-1.81
2019-01-30T19:02:49.720Z,-1.86
2019-01-30T19:04:23.416Z,-1.90
2019-01-30T19:05:57.417Z,-1.89
2019-01-30T19:07:32.153Z,-1.91
2019-01-30T19:09:06.555Z,-1.95
2019-01-30T19:10:40.259Z,-1.95
2019-01-30T19:12:14.357Z,-1.99
2019-01-30T19:13:48.539Z,-2.00
2019-01-30T19:15:25.072Z,-2.06
2019-01-30T19:16:59.126Z,-2.07
2019-01-30T19:18:34.068Z,-2.15
2019-01-30T19:20:08.174Z,-2.13
2019-01-30T19:21:42.082Z,-2.15
2019-01-30T19:23:15.875Z,-2.15
2019-01-30T19:24:49.884Z,-2.11
2019-01-30T19:26:23.735Z,-2.09
2019-01-30T19:27:57.791Z,-2.07
2019-01-30T19:29:31.671Z,-2.10
2019-01-30T19:31:05.679Z,-2.09
2019-01-30T19:32:39.904Z,-2.10
2019-01-30T19:34:14.112Z,-2.08
2019-01-30T19:35:47.908Z,-2.07
2019-01-30T19:37:21.847Z,-2.07
2019-01-30T19:38:55.799Z,-2.09
2019-01-30T19:40:30.683Z,-2.10
2019-01-30T19:42:04.627Z,-2.10
2019-01-30T19:43:38.701Z,-2.10
2019-01-30T19:45:12.550Z,-2.09
2019-01-30T19:46:46.424Z,-2.10
2019-01-30T19:50:02.302Z,-2.09
2019-01-30T19:51:36.135Z,-2.08
2019-01-30T19:53:12.027Z,-2.09
2019-01-30T19:54:45.903Z,-2.12
2019-01-30T19:56:19.886Z,-2.15
2019-01-30T19:57:53.796Z,-2.16
2019-01-30T19:59:27.817Z,-2.14
2019-01-30T20:01:04.593Z,-2.13
2019-01-30T20:02:38.477Z,-2.13
2019-01-30T20:04:12.592Z,-2.13
2019-01-30T20:05:46.599Z,-2.14
2019-01-30T20:07:21.416Z,-2.13
2019-01-30T20:08:56.414Z,-2.14
2019-01-30T20:10:33.484Z,-2.13
2019-01-30T20:12:07.454Z,-2.13
2019-01-30T20:13:41.414Z,-2.13
2019-01-30T20:15:15.418Z,-2.14
2019-01-30T20:16:49.638Z,-2.14
2019-01-30T20:18:24.470Z,-2.14
2019-01-30T20:19:58.177Z,-2.23
2019-01-30T20:21:32.110Z,-2.21
2019-01-30T20:23:06.381Z,-2.21